Time;durP1;ratioP1;P1;durP2;ratioP2;P2;SDS_P1;SDS_P2;PMS_P1;PMS_P2;Temp;Humidity;BMP_temperature;BMP_pressure;BME280_temperature;BME280_humidity;BME280_pressure;Samples;Min_cycle;Max_cycle;Signal;HPM_P1;HPM_P2
2022/07/07 00:02:37;;;;;;;1.85;1.33;;;21.70;59.10;;;;;;10392837;28;20033;-59
2022/07/07 00:07:38;;;;;;;1.58;1.33;;;21.70;59.10;;;;;;10395988;28;20428;-58
2022/07/07 00:12:39;;;;;;;2.35;1.10;;;21.70;59.10;;;;;;10386065;28;20112;-56
2022/07/07 00:17:40;;;;;;;1.70;1.20;;;21.60;59.10;;;;;;10386648;28;20030;-59
2022/07/07 00:22:40;;;;;;;1.55;1.10;;;21.60;59.20;;;;;;10400837;28;20037;-58
2022/07/07 00:27:41;;;;;;;2.35;1.52;;;21.60;59.20;;;;;;10382128;28;20026;-58
2022/07/07 00:32:42;;;;;;;3.03;1.50;;;21.60;59.20;;;;;;10393527;28;20048;-58
2022/07/07 00:37:42;;;;;;;2.50;1.30;;;21.60;59.50;;;;;;10387358;28;20038;-57
2022/07/07 00:42:43;;;;;;;2.42;1.67;;;21.70;59.50;;;;;;10386653;28;20030;-59
2022/07/07 00:47:44;;;;;;;2.50;1.33;;;21.70;59.80;;;;;;10374352;28;20041;-59
2022/07/07 00:52:46;;;;;;;1.80;1.40;;;21.60;60.00;;;;;;10390491;28;20038;-59
2022/07/07 00:57:47;;;;;;;2.33;1.50;;;21.60;59.80;;;;;;10397193;28;20030;-58
2022/07/07 01:02:48;;;;;;;1.23;1.02;;;21.60;59.70;;;;;;10379901;28;20042;-58
2022/07/07 01:07:51;;;;;;;2.00;1.40;;;21.60;59.70;;;;;;10396289;28;20026;-58
2022/07/07 01:12:51;;;;;;;2.33;1.40;;;21.60;59.60;;;;;;10377823;28;20124;-57
2022/07/07 01:17:52;;;;;;;1.70;1.10;;;21.60;59.70;;;;;;10394440;28;20655;-58
2022/07/07 01:22:54;;;;;;;2.28;1.20;;;21.60;59.60;;;;;;10401036;28;20040;-59
2022/07/07 01:27:55;;;;;;;1.98;1.10;;;21.60;59.60;;;;;;10388820;28;20041;-57
2022/07/07 01:32:56;;;;;;;1.83;1.30;;;21.60;59.80;;;;;;10388729;28;20109;-58
2022/07/07 01:37:56;;;;;;;1.25;1.02;;;21.60;59.70;;;;;;10402611;28;20058;-59
2022/07/07 01:42:57;;;;;;;1.92;1.30;;;21.60;59.80;;;;;;10395256;28;20079;-58
2022/07/07 01:47:58;;;;;;;2.78;1.10;;;21.60;59.90;;;;;;10388279;28;20047;-58
2022/07/07 01:52:58;;;;;;;1.48;1.30;;;21.60;60.00;;;;;;10412816;28;20548;-58
2022/07/07 01:57:59;;;;;;;2.08;1.27;;;21.60;59.90;;;;;;10402479;28;20052;-58
2022/07/07 02:03:00;;;;;;;1.88;1.00;;;21.60;59.90;;;;;;10404933;28;20409;-58
2022/07/07 02:08:00;;;;;;;1.40;0.90;;;21.60;60.00;;;;;;10395582;28;20101;-59
2022/07/07 02:13:01;;;;;;;1.55;1.10;;;21.60;60.10;;;;;;10392726;28;20051;-57
2022/07/07 02:18:02;;;;;;;1.67;1.17;;;21.60;60.10;;;;;;10374302;28;20041;-59
2022/07/07 02:23:03;;;;;;;2.33;1.10;;;21.60;60.10;;;;;;10402467;28;20034;-59
2022/07/07 02:28:03;;;;;;;1.65;1.20;;;21.60;60.00;;;;;;10402531;28;20108;-59
2022/07/07 02:33:05;;;;;;;1.75;1.15;;;21.60;60.10;;;;;;10387111;28;20398;-57
2022/07/07 02:38:05;;;;;;;1.40;0.93;;;21.60;60.00;;;;;;10383286;28;20109;-58
2022/07/07 02:43:06;;;;;;;2.15;1.10;;;21.60;60.10;;;;;;10387969;28;20033;-58
2022/07/07 02:48:08;;;;;;;1.02;0.90;;;21.60;60.30;;;;;;10382724;28;20037;-58
2022/07/07 02:53:10;;;;;;;1.95;1.60;;;21.60;60.30;;;;;;10386565;28;20044;-58
2022/07/07 02:58:13;;;;;;;3.33;1.23;;;21.60;60.40;;;;;;10386370;28;20033;-58
2022/07/07 03:03:14;;;;;;;0.95;0.80;;;21.60;60.40;;;;;;10376912;28;20045;-58
2022/07/07 03:08:14;;;;;;;1.58;1.13;;;21.60;60.30;;;;;;10378122;28;20033;-56
2022/07/07 03:13:15;;;;;;;1.85;1.10;;;21.60;60.40;;;;;;10390903;28;20133;-58
2022/07/07 03:18:16;;;;;;;1.38;0.98;;;21.60;60.40;;;;;;10376914;28;20526;-58
2022/07/07 03:23:16;;;;;;;1.73;1.23;;;21.60;60.40;;;;;;10391427;28;20548;-58
2022/07/07 03:28:17;;;;;;;1.67;1.55;;;21.60;60.40;;;;;;10405888;28;20104;-56
2022/07/07 03:33:18;;;;;;;2.67;1.60;;;21.60;60.40;;;;;;10404341;28;20044;-58
2022/07/07 03:38:18;;;;;;;1.58;1.20;;;21.60;60.40;;;;;;10375508;28;20053;-59
2022/07/07 03:43:20;;;;;;;2.33;1.45;;;21.60;60.50;;;;;;10396843;28;20055;-57
2022/07/07 03:48:20;;;;;;;2.67;1.05;;;21.50;60.80;;;;;;10390890;28;20017;-58
2022/07/07 03:53:21;;;;;;;1.52;1.05;;;21.60;60.80;;;;;;10381554;28;20409;-58
2022/07/07 03:58:22;;;;;;;3.55;0.93;;;21.50;60.90;;;;;;10376174;28;20029;-59
2022/07/07 04:03:22;;;;;;;1.80;1.38;;;21.50;60.80;;;;;;10371448;28;20378;-58
2022/07/07 04:08:23;;;;;;;1.30;0.80;;;21.60;60.90;;;;;;10383971;28;20389;-57
2022/07/07 04:13:24;;;;;;;1.83;1.10;;;21.50;60.80;;;;;;10383080;28;20042;-58
2022/07/07 04:18:25;;;;;;;2.03;0.95;;;21.50;60.70;;;;;;10388165;28;20678;-57
2022/07/07 04:23:26;;;;;;;1.98;1.02;;;21.60;60.80;;;;;;10364581;28;20040;-58
2022/07/07 04:28:28;;;;;;;2.03;1.10;;;21.50;60.70;;;;;;10367859;28;20025;-58
2022/07/07 04:33:29;;;;;;;1.73;0.90;;;21.50;60.90;;;;;;10389546;28;20123;-58
2022/07/07 04:38:30;;;;;;;2.58;1.38;;;21.50;60.80;;;;;;10389282;28;20721;-58
2022/07/07 04:43:30;;;;;;;1.10;1.00;;;21.50;60.90;;;;;;10390063;28;20036;-58
2022/07/07 04:48:31;;;;;;;0.90;0.70;;;21.50;60.80;;;;;;10406957;28;20025;-59
2022/07/07 04:53:32;;;;;;;1.38;1.20;;;21.60;60.90;;;;;;10378375;28;20036;-59
2022/07/07 04:58:32;;;;;;;1.88;1.15;;;21.50;61.60;;;;;;10402534;28;20033;-60
2022/07/07 05:03:33;;;;;;;11.25;2.10;;;21.50;62.30;;;;;;10382315;28;20119;-59
2022/07/07 05:08:34;;;;;;;8.10;2.17;;;21.60;63.30;;;;;;10392032;28;20030;-57
2022/07/07 05:13:35;;;;;;;5.03;1.45;;;21.60;63.30;;;;;;10376496;28;20429;-59
2022/07/07 05:18:35;;;;;;;4.80;1.30;;;21.60;63.50;;;;;;10393492;28;20030;-57
2022/07/07 05:23:36;;;;;;;6.32;2.15;;;21.70;64.10;;;;;;10372173;28;20156;-58
2022/07/07 05:28:41;;;;;;;5.72;1.58;;;21.70;63.90;;;;;;10399417;28;20025;-58
2022/07/07 05:33:42;;;;;;;12.95;2.95;;;21.70;63.50;;;;;;10407540;28;20053;-60
2022/07/07 05:38:45;;;;;;;7.47;1.95;;;21.60;63.40;;;;;;10383847;28;20053;-59
2022/07/07 05:43:46;;;;;;;19.73;3.08;;;21.60;63.40;;;;;;10380500;28;20123;-60
2022/07/07 05:48:46;;;;;;;16.58;2.38;;;21.60;63.70;;;;;;10401999;28;20071;-58
2022/07/07 05:53:47;;;;;;;13.27;2.90;;;21.60;63.80;;;;;;10371047;28;20112;-57
2022/07/07 05:58:48;;;;;;;14.80;3.08;;;21.60;63.80;;;;;;10385034;28;20377;-59
2022/07/07 06:03:48;;;;;;;23.27;3.70;;;21.60;63.70;;;;;;10389510;28;20046;-59
2022/07/07 06:08:49;;;;;;;18.80;3.65;;;21.60;63.80;;;;;;10377713;28;20028;-60
2022/07/07 06:13:50;;;;;;;18.52;4.15;;;21.60;63.90;;;;;;10371644;28;20053;-57
2022/07/07 06:18:51;;;;;;;18.52;4.15;;;21.60;63.90;;;;;;10376505;28;20034;-58
2022/07/07 06:23:52;;;;;;;17.70;4.03;;;21.60;63.80;;;;;;10388074;28;20428;-59
2022/07/07 06:28:53;;;;;;;13.90;3.28;;;21.60;63.70;;;;;;10394519;28;20057;-59
2022/07/07 06:33:54;;;;;;;15.45;4.03;;;21.60;63.30;;;;;;10385357;28;20500;-60
2022/07/07 06:38:54;;;;;;;15.52;3.97;;;21.60;63.80;;;;;;10388325;28;20133;-56
2022/07/07 06:43:55;;;;;;;10.63;2.63;;;21.60;64.20;;;;;;10375758;28;20034;-57
2022/07/07 06:48:57;;;;;;;8.55;2.70;;;21.60;64.10;;;;;;10389720;28;20448;-55
2022/07/07 06:53:58;;;;;;;10.23;2.92;;;21.60;64.00;;;;;;10392604;28;20033;-57
2022/07/07 06:58:59;;;;;;;8.75;2.55;;;21.60;64.00;;;;;;10366970;28;20046;-56
2022/07/07 07:04:00;;;;;;;12.07;2.78;;;21.60;64.20;;;;;;10404578;28;20120;-57
2022/07/07 07:09:01;;;;;;;9.35;2.33;;;21.60;64.20;;;;;;10394092;28;21452;-58
2022/07/07 07:14:02;;;;;;;9.27;2.67;;;21.60;64.20;;;;;;10381911;28;20104;-58
2022/07/07 07:19:03;;;;;;;8.27;2.33;;;21.60;64.10;;;;;;10392728;28;20080;-56
2022/07/07 07:24:04;;;;;;;7.57;2.78;;;21.60;64.10;;;;;;10413287;28;20090;-56
2022/07/07 07:29:05;;;;;;;9.63;2.03;;;21.60;64.20;;;;;;10379589;28;20034;-57
2022/07/07 07:34:07;;;;;;;5.63;1.83;;;21.60;64.20;;;;;;10408417;28;20029;-60
2022/07/07 07:39:08;;;;;;;6.85;2.00;;;21.60;64.20;;;;;;10372819;28;20057;-56
2022/07/07 07:44:08;;;;;;;5.80;2.15;;;21.70;64.30;;;;;;10392700;28;20459;-57
2022/07/07 07:49:09;;;;;;;8.32;1.92;;;21.70;64.30;;;;;;10389842;28;20042;-56
2022/07/07 07:54:10;;;;;;;6.05;1.98;;;21.70;64.20;;;;;;10396630;28;20484;-56
2022/07/07 07:59:10;;;;;;;7.00;1.73;;;21.70;64.20;;;;;;10389230;28;20477;-57
2022/07/07 08:04:11;;;;;;;6.57;2.17;;;21.70;64.10;;;;;;10380054;28;20037;-57
2022/07/07 08:09:12;;;;;;;6.25;1.33;;;21.70;64.20;;;;;;10375606;28;20048;-58
2022/07/07 08:14:13;;;;;;;6.38;1.50;;;21.70;64.10;;;;;;10379092;28;20036;-57
2022/07/07 08:19:17;;;;;;;3.47;1.38;;;21.70;63.60;;;;;;10377617;28;20037;-58
2022/07/07 08:24:18;;;;;;;5.68;1.45;;;21.70;63.70;;;;;;10386474;28;20672;-59
2022/07/07 08:29:19;;;;;;;4.55;1.75;;;21.70;63.90;;;;;;10366835;28;20049;-58
2022/07/07 08:34:19;;;;;;;5.07;1.35;;;21.60;63.90;;;;;;10385444;28;20032;-58
2022/07/07 08:39:20;;;;;;;4.22;1.40;;;21.70;63.90;;;;;;10379889;28;20414;-58
2022/07/07 08:44:21;;;;;;;3.38;1.60;;;21.70;63.80;;;;;;10410202;28;20061;-58
2022/07/07 08:49:22;;;;;;;4.07;1.15;;;21.60;63.80;;;;;;10416444;28;20024;-59
2022/07/07 08:54:26;;;;;;;9.23;1.73;;;21.70;63.50;;;;;;10390909;28;20021;-58
2022/07/07 08:59:26;;;;;;;2.45;1.10;;;21.70;63.40;;;;;;10410358;28;20120;-58
2022/07/07 09:04:28;;;;;;;3.83;1.10;;;21.70;63.40;;;;;;10410105;28;20030;-59
2022/07/07 09:09:48;;;;;;;3.33;1.27;;;21.70;63.30;;;;;;10395253;28;20039;-58
2022/07/07 09:14:55;;;;;;;3.92;1.00;;;21.70;63.30;;;;;;10368987;28;20497;-57
2022/07/07 09:20:07;;;;;;;2.40;0.98;;;21.60;63.30;;;;;;10368562;28;20034;-60
2022/07/07 09:25:09;;;;;;;7.15;1.35;;;21.60;63.70;;;;;;10401984;28;20034;-57
2022/07/07 09:30:11;;;;;;;4.38;2.05;;;21.60;63.60;;;;;;10388729;28;20034;-58
2022/07/07 09:41:05;;;;;;;4.25;1.35;;;21.60;63.50;;;;;;10391605;28;20068;-57
2022/07/07 09:46:07;;;;;;;5.88;1.83;;;21.70;63.30;;;;;;10391229;28;20030;-57
2022/07/07 09:51:29;;;;;;;3.08;1.23;;;21.60;63.50;;;;;;10402657;28;20112;-58
2022/07/07 09:56:36;;;;;;;5.15;1.55;;;21.70;63.90;;;;;;10376700;28;20029;-56
2022/07/07 10:01:40;;;;;;;3.95;1.60;;;21.70;63.40;;;;;;10379778;28;20116;-57
2022/07/07 10:06:43;;;;;;;5.50;1.58;;;21.60;63.40;;;;;;10365804;28;20022;-58
2022/07/07 10:11:51;;;;;;;3.15;1.10;;;21.60;63.30;;;;;;10366544;28;20037;-57
2022/07/07 10:16:54;;;;;;;2.90;0.83;;;21.60;63.50;;;;;;10376736;28;20033;-58
2022/07/07 10:21:57;;;;;;;2.80;1.30;;;21.60;63.50;;;;;;10362333;28;20037;-58
2022/07/07 10:27:01;;;;;;;3.63;1.08;;;21.60;63.50;;;;;;10375341;28;20523;-59
2022/07/07 10:32:01;;;;;;;3.88;0.90;;;21.60;63.40;;;;;;10395206;28;20025;-58
2022/07/07 10:37:11;;;;;;;2.95;1.10;;;21.60;63.40;;;;;;10386059;28;20061;-56
2022/07/07 10:42:17;;;;;;;5.90;1.48;;;21.60;63.40;;;;;;10366241;28;20390;-59
2022/07/07 10:47:21;;;;;;;3.67;1.23;;;21.60;63.60;;;;;;10402495;28;20033;-58
2022/07/07 10:52:28;;;;;;;3.28;1.25;;;21.60;63.40;;;;;;10399149;28;20068;-61
2022/07/07 10:57:45;;;;;;;2.08;1.17;;;21.60;63.30;;;;;;10370002;28;20037;-58
2022/07/07 11:03:06;;;;;;;3.88;0.80;;;21.60;63.50;;;;;;10373681;28;20460;-59
2022/07/07 11:08:09;;;;;;;2.03;0.80;;;21.60;63.50;;;;;;10373536;28;20521;-59
2022/07/07 11:13:18;;;;;;;3.80;1.15;;;21.60;63.40;;;;;;10385378;28;20485;-58
2022/07/07 11:18:19;;;;;;;2.53;0.93;;;21.60;63.50;;;;;;10411487;28;20033;-58
2022/07/07 11:23:21;;;;;;;1.95;0.60;;;21.60;63.60;;;;;;10398996;28;20072;-55
2022/07/07 11:28:25;;;;;;;2.63;0.77;;;21.70;63.70;;;;;;10395968;28;20037;-58
2022/07/07 11:33:26;;;;;;;3.53;1.10;;;21.60;63.60;;;;;;10390424;28;20040;-58
2022/07/07 11:38:29;;;;;;;3.38;1.05;;;21.70;63.60;;;;;;10389664;28;20045;-57
2022/07/07 11:43:30;;;;;;;1.92;0.77;;;21.70;63.70;;;;;;10398766;28;20045;-58
2022/07/07 11:48:41;;;;;;;2.55;0.95;;;21.70;63.70;;;;;;10393743;28;20468;-57
2022/07/07 11:53:42;;;;;;;2.85;0.73;;;21.70;63.70;;;;;;10395172;28;20060;-58
2022/07/07 11:58:59;;;;;;;4.68;1.35;;;21.70;63.60;;;;;;10408811;28;20105;-58
2022/07/07 12:04:21;;;;;;;1.15;0.50;;;21.60;63.60;;;;;;10397967;28;20037;-59
2022/07/07 12:09:22;;;;;;;2.95;0.88;;;21.60;63.60;;;;;;10388177;28;20545;-59
2022/07/07 12:14:23;;;;;;;4.40;1.15;;;21.70;63.70;;;;;;10377488;28;20032;-59
2022/07/07 12:19:23;;;;;;;5.55;1.42;;;21.70;64.20;;;;;;10389872;28;20036;-58
2022/07/07 12:24:24;;;;;;;1.80;0.70;;;21.70;64.30;;;;;;10384867;28;20022;-57
2022/07/07 12:29:25;;;;;;;4.03;1.48;;;21.70;64.00;;;;;;10383020;28;20057;-58
2022/07/07 12:34:26;;;;;;;3.67;0.80;;;21.60;63.80;;;;;;10389964;28;20028;-58
2022/07/07 12:39:26;;;;;;;4.95;1.20;;;21.60;63.80;;;;;;10385143;28;20519;-58
2022/07/07 12:44:31;;;;;;;4.43;1.08;;;21.60;63.70;;;;;;10388143;28;20033;-58
2022/07/07 12:49:32;;;;;;;2.55;1.00;;;21.70;63.90;;;;;;10402940;28;20026;-58
2022/07/07 12:54:32;;;;;;;1.60;0.80;;;21.70;63.80;;;;;;10391993;28;20021;-58
2022/07/07 12:59:45;;;;;;;2.70;0.80;;;21.70;63.80;;;;;;10392610;28;20025;-59
2022/07/07 13:04:47;;;;;;;4.03;1.67;;;21.70;63.80;;;;;;10396368;28;20040;-58
2022/07/07 13:09:49;;;;;;;2.35;0.70;;;21.70;63.90;;;;;;10409435;28;20379;-59
2022/07/07 13:14:49;;;;;;;3.97;1.40;;;21.70;63.70;;;;;;10373048;28;20117;-58
2022/07/07 13:19:50;;;;;;;5.47;1.20;;;21.70;63.70;;;;;;10367424;28;20026;-58
2022/07/07 13:24:51;;;;;;;2.28;1.08;;;21.70;63.60;;;;;;10367512;28;20113;-58
2022/07/07 13:29:51;;;;;;;3.35;1.15;;;21.70;63.50;;;;;;10383019;28;20580;-58
2022/07/07 13:34:52;;;;;;;2.67;1.20;;;21.70;63.40;;;;;;10406410;28;20108;-57
2022/07/07 13:39:53;;;;;;;3.90;1.38;;;21.70;63.30;;;;;;10368143;28;20026;-58
2022/07/07 13:44:54;;;;;;;1.63;0.90;;;21.70;63.20;;;;;;10377243;28;20043;-57
2022/07/07 13:49:59;;;;;;;4.05;1.30;;;21.80;63.10;;;;;;10396457;28;20076;-57
2022/07/07 13:54:59;;;;;;;3.88;1.60;;;21.70;63.10;;;;;;10389982;28;20032;-59
2022/07/07 14:00:01;;;;;;;3.03;1.50;;;21.70;63.50;;;;;;10393630;28;20480;-58
2022/07/07 14:05:02;;;;;;;4.00;1.23;;;21.70;62.90;;;;;;10407623;28;20408;-59
2022/07/07 14:10:03;;;;;;;3.67;1.10;;;21.70;62.80;;;;;;10380165;28;20037;-57
2022/07/07 14:15:05;;;;;;;3.50;1.08;;;21.70;62.80;;;;;;10396702;28;20120;-59
2022/07/07 14:20:07;;;;;;;3.97;1.10;;;21.70;62.70;;;;;;10392917;28;20041;-58
2022/07/07 14:25:09;;;;;;;2.00;0.98;;;21.70;62.70;;;;;;10392604;28;20143;-59
2022/07/07 14:30:11;;;;;;;1.92;1.17;;;21.70;62.70;;;;;;10397074;28;20041;-56
2022/07/07 14:35:12;;;;;;;2.65;1.40;;;21.70;62.50;;;;;;10405618;28;20080;-58
2022/07/07 14:40:13;;;;;;;5.68;1.35;;;21.70;62.50;;;;;;10407059;28;20129;-57
2022/07/07 14:45:14;;;;;;;3.92;1.35;;;21.70;62.30;;;;;;10385547;28;20594;-58
2022/07/07 14:50:15;;;;;;;2.08;1.00;;;21.70;62.20;;;;;;10388035;28;20555;-58
2022/07/07 14:55:16;;;;;;;4.95;1.55;;;21.70;62.30;;;;;;10373298;28;20088;-58
2022/07/07 15:00:18;;;;;;;2.90;0.90;;;21.70;62.30;;;;;;10401183;28;20072;-58
2022/07/07 15:05:18;;;;;;;2.90;1.30;;;21.70;62.20;;;;;;10406618;28;20117;-59
2022/07/07 15:10:19;;;;;;;5.25;1.50;;;21.70;62.30;;;;;;10404629;28;20034;-59
2022/07/07 15:15:21;;;;;;;2.35;1.10;;;21.70;62.20;;;;;;10406136;28;20061;-59
2022/07/07 15:20:22;;;;;;;4.10;1.27;;;21.70;62.20;;;;;;10404855;28;20065;-59
2022/07/07 15:25:23;;;;;;;2.70;1.15;;;21.70;62.10;;;;;;10388269;28;20033;-58
2022/07/07 15:30:23;;;;;;;3.95;0.90;;;21.70;61.80;;;;;;10377346;28;20083;-57
2022/07/07 15:35:24;;;;;;;2.83;1.40;;;21.70;61.80;;;;;;10414498;28;20064;-58
2022/07/07 15:40:25;;;;;;;2.20;1.23;;;21.70;61.90;;;;;;10371237;28;20113;-58
2022/07/07 15:45:26;;;;;;;3.58;1.30;;;21.70;61.70;;;;;;10371217;28;20028;-59
2022/07/07 15:50:26;;;;;;;2.47;0.82;;;21.70;61.90;;;;;;10397410;28;20030;-59
2022/07/07 15:55:27;;;;;;;2.38;0.95;;;21.70;62.00;;;;;;10389505;28;20100;-58
2022/07/07 16:00:28;;;;;;;3.33;1.10;;;21.70;61.90;;;;;;10391972;28;20045;-56
2022/07/07 16:05:29;;;;;;;33.13;10.18;;;21.70;61.80;;;;;;10390890;28;20048;-57
2022/07/07 16:10:30;;;;;;;9.18;3.25;;;21.90;62.30;;;;;;10372731;28;20146;-56
2022/07/07 16:15:31;;;;;;;10.90;2.92;;;22.00;61.10;;;;;;10371337;28;20537;-56
2022/07/07 16:20:32;;;;;;;9.43;3.20;;;22.00;61.80;;;;;;10371720;28;20056;-58
2022/07/07 16:25:33;;;;;;;17.05;3.60;;;21.90;62.90;;;;;;10372363;28;20036;-58
2022/07/07 16:30:33;;;;;;;14.35;3.42;;;22.00;63.40;;;;;;10401359;28;20465;-58
2022/07/07 16:35:34;;;;;;;10.20;2.65;;;22.10;62.40;;;;;;10360328;28;20049;-57
2022/07/07 16:40:35;;;;;;;13.45;3.50;;;22.10;62.20;;;;;;10373303;28;20117;-55
2022/07/07 16:45:36;;;;;;;18.85;4.47;;;22.10;62.40;;;;;;10371765;28;20029;-59
2022/07/07 16:50:37;;;;;;;18.52;3.97;;;22.10;62.60;;;;;;10405188;28;20034;-60
2022/07/07 16:55:37;;;;;;;17.35;4.63;;;22.10;62.50;;;;;;10390707;28;20036;-60
2022/07/07 17:00:38;;;;;;;17.55;4.50;;;22.10;62.80;;;;;;10410983;28;20584;-61
2022/07/07 17:05:39;;;;;;;16.70;3.70;;;22.10;62.70;;;;;;10381600;28;20030;-60
2022/07/07 17:10:41;;;;;;;12.13;4.43;;;22.00;62.50;;;;;;10397570;28;20034;-60
2022/07/07 17:15:42;;;;;;;16.00;2.80;;;21.90;62.70;;;;;;10411184;28;20021;-60
2022/07/07 17:20:43;;;;;;;11.98;2.78;;;21.90;62.70;;;;;;10378634;28;20091;-61
2022/07/07 17:25:44;;;;;;;17.17;3.65;;;21.80;62.60;;;;;;10370594;28;20030;-60
2022/07/07 17:30:45;;;;;;;10.25;3.05;;;21.80;62.70;;;;;;10390227;28;20049;-60
2022/07/07 17:35:48;;;;;;;12.15;3.85;;;21.80;62.50;;;;;;10393545;28;20054;-61
2022/07/07 17:40:51;;;;;;;11.35;2.45;;;21.80;62.50;;;;;;10369392;28;20038;-58
2022/07/07 17:45:52;;;;;;;9.32;2.85;;;21.80;62.40;;;;;;10368100;28;20045;-61
2022/07/07 17:50:52;;;;;;;9.30;3.00;;;21.80;62.20;;;;;;10389793;28;20109;-61
2022/07/07 17:55:53;;;;;;;12.57;3.75;;;21.80;62.20;;;;;;10373574;28;20034;-60
2022/07/07 18:00:55;;;;;;;12.27;2.60;;;21.80;62.10;;;;;;10387100;28;20052;-60
2022/07/07 18:05:56;;;;;;;9.10;3.38;;;21.80;61.90;;;;;;10378395;28;20037;-58
2022/07/07 18:10:57;;;;;;;10.23;2.22;;;21.80;62.00;;;;;;10369160;28;20152;-59
2022/07/07 18:15:58;;;;;;;6.65;3.00;;;21.80;61.90;;;;;;10395216;28;20033;-60
2022/07/07 18:21:00;;;;;;;8.25;2.90;;;21.70;61.90;;;;;;10393638;28;20029;-60
2022/07/07 18:26:01;;;;;;;9.65;2.00;;;21.70;61.90;;;;;;10408245;28;20025;-60
2022/07/07 18:31:05;;;;;;;9.88;2.42;;;21.80;61.90;;;;;;10388770;28;20033;-60
2022/07/07 18:36:07;;;;;;;6.68;2.20;;;21.80;61.80;;;;;;10400518;28;20041;-59
2022/07/07 18:41:10;;;;;;;6.75;2.00;;;21.70;61.80;;;;;;10380192;28;20038;-60
2022/07/07 18:46:11;;;;;;;6.38;2.10;;;21.70;61.80;;;;;;10384248;28;20034;-60
2022/07/07 18:56:31;;;;;;;10.30;2.10;;;21.70;62.00;;;;;;10399320;28;20432;-61
2022/07/07 19:01:33;;;;;;;5.85;2.72;;;21.70;62.00;;;;;;10385272;28;20066;-60
2022/07/07 19:06:33;;;;;;;6.57;2.38;;;21.70;62.10;;;;;;10374705;28;20184;-61
2022/07/07 19:11:34;;;;;;;7.03;2.28;;;21.70;61.80;;;;;;10384560;28;20034;-63
2022/07/07 19:16:42;;;;;;;6.75;2.20;;;21.70;62.40;;;;;;10402374;28;20543;-61
2022/07/07 19:21:43;;;;;;;7.55;2.28;;;21.70;61.80;;;;;;10387417;28;20061;-61
2022/07/07 19:26:44;;;;;;;4.78;1.85;;;21.70;61.60;;;;;;10385525;28;20053;-60
2022/07/07 19:31:45;;;;;;;5.43;1.88;;;21.70;61.80;;;;;;10394305;28;20423;-61
2022/07/07 19:36:46;;;;;;;3.47;1.83;;;21.70;61.70;;;;;;10407519;28;20081;-60
2022/07/07 19:41:47;;;;;;;7.43;1.88;;;21.70;61.70;;;;;;10390772;28;20065;-60
2022/07/07 19:46:49;;;;;;;6.50;1.80;;;21.70;61.70;;;;;;10392340;28;20049;-58
2022/07/07 19:51:50;;;;;;;7.50;1.85;;;21.70;61.50;;;;;;10408356;28;20093;-60
2022/07/07 19:56:50;;;;;;;4.63;1.45;;;21.70;61.50;;;;;;10410660;28;20897;-60
2022/07/07 20:01:51;;;;;;;5.55;1.65;;;21.70;61.50;;;;;;10406853;28;20132;-60
2022/07/07 20:06:55;;;;;;;6.28;1.50;;;21.70;61.40;;;;;;10406097;28;20037;-60
2022/07/07 20:11:56;;;;;;;5.57;1.33;;;21.70;61.40;;;;;;10405319;28;20037;-59
2022/07/07 20:16:57;;;;;;;6.13;1.65;;;21.70;61.40;;;;;;10408240;28;20018;-60
2022/07/07 20:21:58;;;;;;;3.45;1.30;;;21.70;61.40;;;;;;10406358;28;20444;-59
2022/07/07 20:26:58;;;;;;;5.72;1.60;;;21.70;61.30;;;;;;10405998;28;20025;-60
2022/07/07 20:32:00;;;;;;;2.97;0.88;;;21.60;61.30;;;;;;10404169;28;20021;-59
2022/07/07 20:37:01;;;;;;;3.35;1.30;;;21.70;61.30;;;;;;10407122;28;20175;-60
2022/07/07 20:42:05;;;;;;;3.05;1.13;;;21.70;61.30;;;;;;10407219;28;20090;-60
2022/07/07 20:47:07;;;;;;;2.80;1.08;;;21.70;61.20;;;;;;10406385;28;20017;-60
2022/07/07 20:52:09;;;;;;;4.40;1.60;;;21.60;61.10;;;;;;10404029;28;20048;-60
2022/07/07 20:57:10;;;;;;;2.67;1.02;;;21.60;61.10;;;;;;10408215;28;20025;-60
2022/07/07 21:02:13;;;;;;;2.25;1.10;;;21.70;61.10;;;;;;10405427;28;20033;-59
2022/07/07 21:07:14;;;;;;;2.88;1.10;;;21.60;60.90;;;;;;10408487;28;20025;-60
2022/07/07 21:12:15;;;;;;;3.22;1.00;;;21.60;61.00;;;;;;10388597;28;20429;-60
2022/07/07 21:17:15;;;;;;;3.38;1.88;;;21.60;60.90;;;;;;10405456;28;20037;-60
2022/07/07 21:22:16;;;;;;;2.90;1.13;;;21.60;60.70;;;;;;10405332;28;20052;-59
2022/07/07 21:27:17;;;;;;;2.30;1.20;;;21.60;60.80;;;;;;10409522;28;20028;-60
2022/07/07 21:32:18;;;;;;;2.70;1.02;;;21.60;60.80;;;;;;10405175;28;20484;-58
2022/07/07 21:37:18;;;;;;;2.25;0.70;;;21.60;60.70;;;;;;10386721;28;20479;-60
2022/07/07 21:42:20;;;;;;;2.95;1.23;;;21.60;60.90;;;;;;10369528;28;20038;-59
2022/07/07 21:47:20;;;;;;;2.92;1.38;;;21.60;60.60;;;;;;10351239;28;20029;-59
2022/07/07 21:52:22;;;;;;;3.90;0.95;;;21.60;60.60;;;;;;10364175;28;20473;-59
2022/07/07 21:57:22;;;;;;;2.00;1.20;;;21.60;60.70;;;;;;10367280;28;20029;-60
2022/07/07 22:02:23;;;;;;;2.85;1.25;;;21.60;60.60;;;;;;10369061;28;20018;-59
2022/07/07 22:07:24;;;;;;;2.42;1.13;;;21.60;60.60;;;;;;10368472;28;20037;-60
2022/07/07 22:12:24;;;;;;;1.60;1.10;;;21.60;60.60;;;;;;10368515;28;20692;-60
2022/07/07 22:17:25;;;;;;;2.40;1.10;;;21.60;60.60;;;;;;10367075;28;20037;-59
2022/07/07 22:22:26;;;;;;;1.88;0.80;;;21.60;60.60;;;;;;10401599;28;20032;-60
2022/07/07 22:27:27;;;;;;;2.50;1.30;;;21.60;60.60;;;;;;10394020;28;20492;-60
2022/07/07 22:32:28;;;;;;;2.38;0.95;;;21.60;60.50;;;;;;10388686;28;20034;-60
2022/07/07 22:37:28;;;;;;;2.53;1.00;;;21.60;60.50;;;;;;10367690;28;20433;-60
2022/07/07 22:42:29;;;;;;;2.30;0.90;;;21.60;60.50;;;;;;10393870;28;20053;-61
2022/07/07 22:47:38;;;;;;;2.58;1.15;;;21.60;60.40;;;;;;10392977;28;20026;-58
2022/07/07 22:52:39;;;;;;;2.03;1.55;;;21.60;60.40;;;;;;10400118;28;20098;-60
2022/07/07 22:57:40;;;;;;;2.05;0.88;;;21.50;60.20;;;;;;10405297;28;20451;-60
2022/07/07 23:02:40;;;;;;;2.33;0.98;;;21.60;60.40;;;;;;10414614;28;20037;-60
2022/07/07 23:07:41;;;;;;;1.67;1.05;;;21.50;60.30;;;;;;10407300;28;20060;-59
2022/07/07 23:12:42;;;;;;;2.47;1.00;;;21.60;60.30;;;;;;10401200;28;20037;-60
2022/07/07 23:17:42;;;;;;;2.40;0.90;;;21.50;60.20;;;;;;10392577;28;20109;-60
2022/07/07 23:22:43;;;;;;;2.90;0.85;;;21.50;60.10;;;;;;10381386;28;20529;-60
2022/07/07 23:27:44;;;;;;;3.97;1.33;;;21.50;60.20;;;;;;10378968;28;20492;-60
2022/07/07 23:32:45;;;;;;;2.78;1.02;;;21.50;60.20;;;;;;10380485;28;20036;-59
2022/07/07 23:37:45;;;;;;;2.00;1.10;;;21.50;60.20;;;;;;10379897;28;20056;-60
2022/07/07 23:42:46;;;;;;;1.58;1.20;;;21.50;60.20;;;;;;10378787;28;20378;-60
2022/07/07 23:47:47;;;;;;;1.67;1.00;;;21.50;60.20;;;;;;10378801;28;20022;-60
2022/07/07 23:52:49;;;;;;;2.47;1.27;;;21.50;60.20;;;;;;10388164;28;20179;-60
2022/07/07 23:57:49;;;;;;;3.50;0.80;;;21.50;60.10;;;;;;10371119;28;20037;-59
